Time;durP1;ratioP1;P1;durP2;ratioP2;P2;SDS_P1;SDS_P2;PMS_P1;PMS_P2;Temp;Humidity;BMP_temperature;BMP_pressure;BME280_temperature;BME280_humidity;BME280_pressure;Samples;Min_cycle;Max_cycle;Signal;HPM_P1;HPM_P2
2023/08/10 06:00:12;;;;;;;8.63;4.10;;;;;;;;;;6031721;23;20366;31
2023/08/10 06:02:38;;;;;;;10.65;4.47;;;;;;;;;;4878348;29;20498;-94
2023/08/10 06:05:06;;;;;;;12.20;4.78;;;;;;;;;;4880400;29;20125;-93
2023/08/10 06:07:32;;;;;;;19.42;5.03;;;;;;;;;;4880375;29;20056;-94
2023/08/10 06:09:58;;;;;;;15.27;4.88;;;;;;;;;;4880021;29;20048;-93
2023/08/10 06:12:23;;;;;;;23.42;5.53;;;;;;;;;;4879791;29;20053;-94
2023/08/10 06:14:48;;;;;;;14.10;6.15;;;;;;;;;;4879895;29;20045;-94
2023/08/10 06:17:14;;;;;;;15.23;6.47;;;;;;;;;;4877823;29;20037;-92
2023/08/10 06:19:39;;;;;;;21.27;7.03;;;;;;;;;;4879829;29;20502;-94
2023/08/10 06:22:04;;;;;;;18.20;6.85;;;;;;;;;;4894054;29;20041;-93
2023/08/10 06:24:30;;;;;;;16.98;6.50;;;;;;;;;;4879365;29;20068;-93
2023/08/10 06:26:56;;;;;;;15.68;6.95;;;;;;;;;;4879581;29;20072;-93
2023/08/10 06:29:21;;;;;;;18.08;7.47;;;;;;;;;;4878356;29;20426;-93
2023/08/10 06:31:47;;;;;;;19.77;6.85;;;;;;;;;;4879137;29;20053;-93
2023/08/10 06:34:12;;;;;;;21.67;8.05;;;;;;;;;;4879397;29;20045;-93
2023/08/10 06:36:38;;;;;;;19.08;7.10;;;;;;;;;;4879713;29;20048;-94
2023/08/10 06:39:04;;;;;;;15.52;7.03;;;;;;;;;;4879288;29;20647;-94
2023/08/10 06:41:30;;;;;;;20.70;6.85;;;;;;;;;;4878813;29;20056;-94
2023/08/10 06:43:55;;;;;;;21.55;7.07;;;;;;;;;;4879110;29;20498;-92
2023/08/10 06:46:21;;;;;;;16.23;8.05;;;;;;;;;;4878554;29;20060;-91
2023/08/10 06:48:47;;;;;;;24.15;8.85;;;;;;;;;;4893745;29;20494;-90
2023/08/10 06:51:13;;;;;;;27.70;9.10;;;;;;;;;;4878298;29;20510;-92
2023/08/10 06:53:38;;;;;;;19.05;10.15;;;;;;;;;;4879027;29;20080;-91
2023/08/10 06:56:05;;;;;;;16.85;7.97;;;;;;;;;;4892626;29;20140;-91
2023/08/10 06:58:30;;;;;;;25.48;10.35;;;;;;;;;;4877233;29;20084;-92
2023/08/10 07:00:56;;;;;;;23.95;9.90;;;;;;;;;;4881457;29;20101;-90
2023/08/10 07:03:21;;;;;;;23.75;10.35;;;;;;;;;;4877421;29;20045;-90
2023/08/10 07:05:49;;;;;;;23.20;11.02;;;;;;;;;;4890895;29;20056;-92
2023/08/10 07:08:14;;;;;;;26.38;10.93;;;;;;;;;;4897255;29;20045;-91
2023/08/10 07:10:39;;;;;;;23.27;10.40;;;;;;;;;;4892086;29;20063;-91
2023/08/10 07:13:05;;;;;;;28.23;11.43;;;;;;;;;;4892499;29;20418;-89
2023/08/10 07:15:32;;;;;;;23.02;10.68;;;;;;;;;;4895795;29;20047;-89
2023/08/10 07:17:58;;;;;;;29.95;10.48;;;;;;;;;;4895918;29;20044;-89
2023/08/10 07:20:23;;;;;;;26.75;12.23;;;;;;;;;;4895356;29;20510;-91
2023/08/10 07:22:48;;;;;;;27.52;13.80;;;;;;;;;;4884304;29;20425;-89
2023/08/10 07:25:17;;;;;;;35.88;15.07;;;;;;;;;;4894907;29;20071;-89
2023/08/10 07:27:43;;;;;;;30.00;13.73;;;;;;;;;;4889033;29;20075;-88
2023/08/10 07:30:10;;;;;;;34.63;15.52;;;;;;;;;;4885625;29;20050;-88
2023/08/10 07:32:36;;;;;;;33.22;17.27;;;;;;;;;;4882934;29;20093;-87
2023/08/10 07:35:02;;;;;;;38.20;16.60;;;;;;;;;;4872550;29;20526;-88
2023/08/10 07:37:29;;;;;;;39.97;18.00;;;;;;;;;;4876962;29;20172;-88
2023/08/10 07:39:54;;;;;;;31.95;15.35;;;;;;;;;;4886123;29;20048;-90
2023/08/10 07:42:20;;;;;;;41.58;14.48;;;;;;;;;;4876938;29;20397;-89
2023/08/10 07:44:45;;;;;;;33.25;12.18;;;;;;;;;;4888838;29;20108;-92
2023/08/10 07:47:11;;;;;;;23.67;11.30;;;;;;;;;;4892046;29;20545;-90
2023/08/10 07:49:37;;;;;;;26.77;10.25;;;;;;;;;;4893776;29;20048;-94
2023/08/10 07:52:03;;;;;;;32.05;12.23;;;;;;;;;;4892923;29;20036;-92
2023/08/10 07:54:29;;;;;;;33.55;12.77;;;;;;;;;;4876378;29;20060;-93
2023/08/10 07:56:54;;;;;;;31.05;11.40;;;;;;;;;;4887247;29;20040;-94
2023/08/10 07:59:20;;;;;;;34.70;12.00;;;;;;;;;;4894398;29;20053;-93
2023/08/10 08:01:45;;;;;;;26.95;10.45;;;;;;;;;;4896551;29;20025;-94
2023/08/10 08:04:12;;;;;;;26.10;9.85;;;;;;;;;;4915860;29;20119;-94
2023/08/10 08:06:37;;;;;;;26.00;9.13;;;;;;;;;;4905504;29;20070;-95
2023/08/10 08:09:06;;;;;;;27.58;8.98;;;;;;;;;;4914509;29;20088;-95
2023/08/10 08:11:31;;;;;;;24.42;8.55;;;;;;;;;;4910389;29;20051;-95
2023/08/10 08:13:57;;;;;;;18.77;7.93;;;;;;;;;;4904211;29;20616;-94
2023/08/10 08:16:22;;;;;;;29.08;9.38;;;;;;;;;;4894687;29;20053;-95
2023/08/10 08:18:50;;;;;;;33.20;9.60;;;;;;;;;;4892175;29;20048;-94
2023/08/10 08:21:17;;;;;;;21.08;6.55;;;;;;;;;;4892173;29;20056;-92
2023/08/10 08:23:44;;;;;;;22.93;8.30;;;;;;;;;;4876586;29;20052;-93
2023/08/10 08:26:11;;;;;;;23.40;7.20;;;;;;;;;;4888213;29;20127;-93
2023/08/10 08:28:36;;;;;;;31.05;8.23;;;;;;;;;;4877516;29;20055;-95
2023/08/10 08:31:03;;;;;;;20.75;6.72;;;;;;;;;;4890701;29;20053;-96
2023/08/10 08:33:29;;;;;;;26.08;7.30;;;;;;;;;;4890090;29;20068;-91
2023/08/10 08:35:54;;;;;;;23.13;8.10;;;;;;;;;;4879844;29;20049;-92
2023/08/10 08:38:20;;;;;;;23.65;7.38;;;;;;;;;;4892181;29;20052;-89
2023/08/10 08:40:48;;;;;;;22.70;6.55;;;;;;;;;;4892326;29;20041;-93
2023/08/10 08:43:13;;;;;;;28.98;7.13;;;;;;;;;;4888795;29;20049;-93
2023/08/10 08:45:40;;;;;;;26.85;7.30;;;;;;;;;;4868073;29;20053;-91
2023/08/10 08:48:07;;;;;;;35.95;8.52;;;;;;;;;;4891381;29;20510;-92
2023/08/10 08:50:35;;;;;;;21.17;7.00;;;;;;;;;;4886494;29;20053;-93
2023/08/10 08:53:04;;;;;;;28.73;7.90;;;;;;;;;;4893301;29;20056;-89
2023/08/10 08:55:30;;;;;;;29.63;7.78;;;;;;;;;;4893948;29;20052;-91
2023/08/10 08:57:55;;;;;;;29.45;7.25;;;;;;;;;;4894248;29;20059;-90
2023/08/10 09:00:21;;;;;;;27.65;7.90;;;;;;;;;;4893430;29;20052;-90
2023/08/10 09:02:46;;;;;;;23.45;6.75;;;;;;;;;;4893298;29;20052;-88
2023/08/10 09:05:12;;;;;;;26.52;6.97;;;;;;;;;;4893923;29;20060;-89
2023/08/10 09:07:37;;;;;;;27.60;6.80;;;;;;;;;;4893215;29;20051;-91
2023/08/10 09:10:03;;;;;;;27.30;8.45;;;;;;;;;;4891453;29;20480;-88
2023/08/10 09:12:32;;;;;;;27.80;8.48;;;;;;;;;;4889507;29;20140;-87
2023/08/10 09:15:14;;;;;;;28.25;9.10;;;;;;;;;;4887503;29;20059;-88
2023/08/10 09:17:48;;;;;;;26.23;8.48;;;;;;;;;;4881134;29;20059;-87
2023/08/10 09:20:22;;;;;;;25.70;7.70;;;;;;;;;;4890759;29;20045;-84
2023/08/10 09:22:50;;;;;;;24.33;7.82;;;;;;;;;;4884341;29;20063;-83
2023/08/10 09:25:16;;;;;;;24.80;7.70;;;;;;;;;;4872245;29;20787;-89
2023/08/10 09:27:41;;;;;;;22.27;6.45;;;;;;;;;;4882149;29;20044;-89
2023/08/10 09:30:08;;;;;;;19.23;5.65;;;;;;;;;;4885820;29;20049;-88
2023/08/10 09:32:34;;;;;;;17.38;6.07;;;;;;;;;;4890842;29;20065;-93
2023/08/10 09:35:00;;;;;;;20.30;5.60;;;;;;;;;;4889588;29;20047;-91
2023/08/10 09:37:26;;;;;;;16.20;5.50;;;;;;;;;;4890443;29;20044;-85
2023/08/10 09:40:06;;;;;;;15.43;4.90;;;;;;;;;;4897973;29;20047;-86
2023/08/10 09:42:32;;;;;;;16.10;5.63;;;;;;;;;;4897325;29;20055;-90
2023/08/10 09:44:58;;;;;;;16.05;5.80;;;;;;;;;;4896574;29;20121;-89
2023/08/10 09:47:24;;;;;;;19.83;6.10;;;;;;;;;;4897147;29;20127;-88
2023/08/10 09:49:55;;;;;;;22.50;6.57;;;;;;;;;;4897852;29;20521;-85
2023/08/10 09:52:22;;;;;;;20.00;6.13;;;;;;;;;;4897123;29;20093;-86
2023/08/10 09:54:50;;;;;;;17.48;6.78;;;;;;;;;;4896314;29;20040;-85
2023/08/10 09:57:18;;;;;;;26.88;7.95;;;;;;;;;;4897019;29;20083;-85
2023/08/10 09:59:43;;;;;;;22.98;6.70;;;;;;;;;;4897086;29;20128;-88
2023/08/10 10:02:10;;;;;;;19.27;6.90;;;;;;;;;;4896316;29;20127;-85
2023/08/10 10:04:36;;;;;;;22.90;7.60;;;;;;;;;;4896838;29;20512;-87
2023/08/10 10:07:01;;;;;;;23.10;6.53;;;;;;;;;;4896677;29;20049;-83
2023/08/10 10:09:30;;;;;;;22.10;6.30;;;;;;;;;;4896017;29;20088;-83
2023/08/10 10:12:00;;;;;;;25.85;7.28;;;;;;;;;;4896104;29;20540;-85
2023/08/10 10:14:26;;;;;;;34.25;8.07;;;;;;;;;;4895317;29;20068;-83
2023/08/10 10:16:52;;;;;;;30.55;6.85;;;;;;;;;;4897154;29;20044;-84
2023/08/10 10:19:18;;;;;;;33.67;8.18;;;;;;;;;;4895741;29;20444;-86
2023/08/10 10:21:44;;;;;;;33.53;7.50;;;;;;;;;;4896275;29;20121;-84
2023/08/10 10:24:12;;;;;;;36.42;7.78;;;;;;;;;;4893547;29;20047;-85
2023/08/10 10:26:38;;;;;;;27.35;7.70;;;;;;;;;;4897375;29;20083;-95
2023/08/10 10:29:16;;;;;;;35.72;8.25;;;;;;;;;;4899268;29;20044;-87
2023/08/10 10:31:42;;;;;;;35.60;7.72;;;;;;;;;;4901822;29;20060;-93
2023/08/10 10:34:14;;;;;;;32.85;7.55;;;;;;;;;;4899590;29;20166;-95
2023/08/10 10:36:40;;;;;;;31.23;7.30;;;;;;;;;;4898812;29;20071;-92
2023/08/10 10:39:07;;;;;;;37.17;7.53;;;;;;;;;;4900497;29;20409;-82
2023/08/10 10:41:40;;;;;;;28.02;6.90;;;;;;;;;;4899085;29;20108;-92
2023/08/10 10:44:09;;;;;;;27.80;6.95;;;;;;;;;;4899401;29;20045;-96
2023/08/10 10:46:40;;;;;;;35.35;7.18;;;;;;;;;;4903847;29;20508;-87
2023/08/10 10:49:20;;;;;;;26.33;6.82;;;;;;;;;;4895201;29;20053;-87
2023/08/10 10:51:53;;;;;;;30.73;7.07;;;;;;;;;;4896498;29;20040;-87
2023/08/10 10:54:19;;;;;;;28.40;6.95;;;;;;;;;;4897319;29;20052;-92
2023/08/10 10:56:44;;;;;;;28.83;6.32;;;;;;;;;;4897674;29;20096;-93
2023/08/10 10:59:09;;;;;;;33.10;7.07;;;;;;;;;;4891706;29;20056;-88
2023/08/10 11:01:35;;;;;;;23.08;5.75;;;;;;;;;;4878693;29;20578;-86
2023/08/10 11:04:01;;;;;;;19.77;5.18;;;;;;;;;;4878143;29;20037;-88
2023/08/10 11:06:26;;;;;;;22.50;5.75;;;;;;;;;;4877718;29;20510;-86
2023/08/10 11:08:55;;;;;;;26.45;5.57;;;;;;;;;;4877644;29;20041;-87
2023/08/10 11:11:21;;;;;;;25.65;5.43;;;;;;;;;;4883713;29;20055;-88
2023/08/10 11:13:48;;;;;;;29.20;5.68;;;;;;;;;;4886196;29;20072;-90
2023/08/10 11:16:14;;;;;;;20.63;5.45;;;;;;;;;;4885852;29;20048;-90
2023/08/10 11:18:41;;;;;;;21.17;4.45;;;;;;;;;;4889194;29;20112;-91
2023/08/10 11:21:08;;;;;;;24.65;5.60;;;;;;;;;;4890022;29;20109;-89
2023/08/10 11:23:33;;;;;;;32.22;5.60;;;;;;;;;;4879164;29;20533;-90
2023/08/10 11:26:02;;;;;;;28.33;5.82;;;;;;;;;;4892863;29;20068;-94
2023/08/10 11:28:28;;;;;;;30.48;6.15;;;;;;;;;;4894908;29;20041;-94
2023/08/10 11:30:54;;;;;;;27.38;5.93;;;;;;;;;;4883802;29;20051;-93
2023/08/10 11:33:19;;;;;;;26.08;6.15;;;;;;;;;;4888641;29;20044;-87
2023/08/10 11:35:52;;;;;;;34.47;6.22;;;;;;;;;;4889087;29;20048;-88
2023/08/10 11:38:21;;;;;;;30.30;6.00;;;;;;;;;;4871716;29;20048;-83
2023/08/10 11:40:46;;;;;;;;;;;;;;;;;;4886509;29;20076;-89
2023/08/10 11:43:19;;;;;;;32.35;6.68;;;;;;;;;;4885686;29;20380;-88
2023/08/10 11:45:46;;;;;;;26.63;6.15;;;;;;;;;;4874686;29;20124;-88
2023/08/10 11:48:16;;;;;;;29.70;6.55;;;;;;;;;;4874300;29;20045;-88
2023/08/10 11:50:43;;;;;;;31.42;5.72;;;;;;;;;;4886793;29;20072;-87
2023/08/10 11:53:11;;;;;;;34.00;6.22;;;;;;;;;;4885917;29;20044;-88
2023/08/10 11:55:46;;;;;;;32.63;6.60;;;;;;;;;;4872422;29;20049;-89
2023/08/10 11:58:13;;;;;;;30.98;7.10;;;;;;;;;;4875662;29;20086;-88
2023/08/10 12:00:41;;;;;;;26.65;5.85;;;;;;;;;;4882832;29;20186;-88
2023/08/10 12:03:15;;;;;;;38.65;6.63;;;;;;;;;;4880914;29;20044;-89
2023/08/10 12:05:55;;;;;;;28.15;5.97;;;;;;;;;;4873942;29;20037;-87
2023/08/10 12:08:29;;;;;;;25.25;6.35;;;;;;;;;;4883991;29;20047;-88
2023/08/10 12:11:02;;;;;;;30.80;5.90;;;;;;;;;;4887509;29;20148;-88
2023/08/10 12:13:27;;;;;;;29.65;6.30;;;;;;;;;;4873707;29;20052;-88
2023/08/10 12:15:54;;;;;;;28.48;5.40;;;;;;;;;;4891383;29;20128;-88
2023/08/10 12:18:21;;;;;;;28.67;6.63;;;;;;;;;;4893043;29;20501;-89
2023/08/10 12:20:47;;;;;;;30.10;5.78;;;;;;;;;;4892585;29;20048;-87
2023/08/10 12:23:14;;;;;;;33.45;5.38;;;;;;;;;;4892568;29;20045;-87
2023/08/10 12:25:40;;;;;;;30.38;5.40;;;;;;;;;;4892599;29;20059;-87
2023/08/10 12:28:06;;;;;;;34.38;6.45;;;;;;;;;;4894358;29;20501;-87
2023/08/10 12:30:33;;;;;;;31.50;6.03;;;;;;;;;;4896477;29;20135;-87
2023/08/10 12:32:58;;;;;;;31.23;5.68;;;;;;;;;;4896852;29;20459;-87
2023/08/10 12:35:24;;;;;;;28.65;6.13;;;;;;;;;;4897067;29;20052;-88
2023/08/10 12:37:49;;;;;;;32.85;5.88;;;;;;;;;;4898293;29;20047;-84
2023/08/10 12:40:16;;;;;;;23.77;5.13;;;;;;;;;;4897160;29;20048;-85
2023/08/10 12:42:45;;;;;;;34.53;6.95;;;;;;;;;;4897263;29;20056;-86
2023/08/10 12:45:12;;;;;;;35.55;6.97;;;;;;;;;;4897482;29;20140;-84
2023/08/10 12:47:42;;;;;;;28.83;5.93;;;;;;;;;;4895844;29;20059;-86
2023/08/10 12:50:09;;;;;;;31.08;5.90;;;;;;;;;;4896941;29;20059;-85
2023/08/10 12:52:36;;;;;;;35.40;7.05;;;;;;;;;;4896626;29;20521;-84
2023/08/10 12:55:02;;;;;;;26.80;6.00;;;;;;;;;;4896075;29;20047;-84
2023/08/10 12:57:28;;;;;;;29.60;6.30;;;;;;;;;;4894997;29;20044;-84
2023/08/10 12:59:53;;;;;;;28.50;5.60;;;;;;;;;;4886129;29;20525;-86
2023/08/10 13:02:19;;;;;;;31.30;5.97;;;;;;;;;;4895491;29;20041;-85
2023/08/10 13:04:46;;;;;;;33.47;6.40;;;;;;;;;;4896694;29;20048;-84
2023/08/10 13:07:11;;;;;;;28.25;5.57;;;;;;;;;;4896784;29;20417;-84
2023/08/10 13:09:36;;;;;;;32.17;5.85;;;;;;;;;;4897649;29;20052;-85
2023/08/10 13:12:02;;;;;;;29.65;6.63;;;;;;;;;;4898521;29;20048;-84
2023/08/10 13:14:27;;;;;;;35.35;6.43;;;;;;;;;;4897689;29;20045;-84
2023/08/10 13:16:53;;;;;;;30.50;6.25;;;;;;;;;;4898412;29;20044;-83
2023/08/10 13:19:18;;;;;;;33.30;6.20;;;;;;;;;;4897544;29;20498;-84
2023/08/10 13:21:45;;;;;;;26.35;5.68;;;;;;;;;;4898589;29;20123;-84
2023/08/10 13:24:10;;;;;;;27.42;6.60;;;;;;;;;;4897504;29;20040;-84
2023/08/10 13:26:35;;;;;;;31.67;6.00;;;;;;;;;;4898326;29;20047;-85
2023/08/10 13:29:01;;;;;;;25.60;5.32;;;;;;;;;;4898031;29;20113;-85
2023/08/10 13:31:26;;;;;;;30.38;5.13;;;;;;;;;;4897410;29;20045;-85
2023/08/10 13:33:52;;;;;;;29.33;5.53;;;;;;;;;;4898158;29;20417;-85
2023/08/10 13:36:17;;;;;;;25.17;5.43;;;;;;;;;;4897583;29;20441;-85
2023/08/10 13:38:43;;;;;;;25.27;4.85;;;;;;;;;;4897159;29;20047;-84
2023/08/10 13:41:08;;;;;;;19.83;4.38;;;;;;;;;;4896322;29;20041;-85
2023/08/10 13:43:33;;;;;;;30.05;5.22;;;;;;;;;;4897660;29;20048;-85
2023/08/10 13:45:59;;;;;;;23.45;4.97;;;;;;;;;;4897763;29;20505;-85
2023/08/10 13:48:24;;;;;;;23.15;4.68;;;;;;;;;;4897068;29;20405;-85
2023/08/10 13:50:51;;;;;;;18.90;4.15;;;;;;;;;;4897841;29;20047;-85
2023/08/10 13:53:17;;;;;;;32.63;5.30;;;;;;;;;;4896984;29;20045;-85
2023/08/10 13:55:43;;;;;;;21.27;5.60;;;;;;;;;;4897433;29;20162;-84
2023/08/10 13:58:09;;;;;;;25.08;5.03;;;;;;;;;;4897005;29;20177;-84
2023/08/10 14:00:34;;;;;;;23.77;4.35;;;;;;;;;;4897160;29;20146;-84
2023/08/10 14:02:59;;;;;;;20.23;3.75;;;;;;;;;;4896510;29;20504;-84
2023/08/10 14:05:27;;;;;;;21.75;4.00;;;;;;;;;;4896980;29;20047;-84
2023/08/10 14:07:53;;;;;;;18.02;4.30;;;;;;;;;;4897247;29;20045;-84
2023/08/10 14:10:18;;;;;;;17.30;4.05;;;;;;;;;;4897016;29;20071;-85
2023/08/10 14:12:43;;;;;;;20.80;4.20;;;;;;;;;;4897388;29;20041;-84
2023/08/10 14:15:09;;;;;;;18.33;4.25;;;;;;;;;;4896736;29;20131;-83
2023/08/10 14:17:34;;;;;;;21.48;4.28;;;;;;;;;;4897066;29;20079;-83
2023/08/10 14:20:00;;;;;;;22.70;4.70;;;;;;;;;;4897492;29;20417;-82
2023/08/10 14:22:25;;;;;;;17.27;4.07;;;;;;;;;;4886441;29;20063;-83
2023/08/10 14:24:52;;;;;;;21.95;4.80;;;;;;;;;;4897089;29;20051;-83
2023/08/10 14:27:17;;;;;;;21.95;4.22;;;;;;;;;;4896617;29;20096;-84
2023/08/10 14:29:43;;;;;;;18.13;4.22;;;;;;;;;;4897095;29;20527;-84
2023/08/10 14:32:08;;;;;;;22.23;4.88;;;;;;;;;;4896338;29;20483;-83
2023/08/10 14:34:34;;;;;;;20.25;4.25;;;;;;;;;;4896991;29;20493;-85
2023/08/10 14:36:59;;;;;;;21.38;4.43;;;;;;;;;;4896905;29;20131;-83
2023/08/10 14:39:24;;;;;;;24.33;4.82;;;;;;;;;;4896296;29;20044;-84
2023/08/10 14:41:50;;;;;;;21.40;5.03;;;;;;;;;;4896579;29;20040;-84
2023/08/10 14:44:20;;;;;;;22.20;3.92;;;;;;;;;;4896239;29;20535;-83
2023/08/10 14:46:45;;;;;;;21.55;4.40;;;;;;;;;;4896766;29;20076;-84
2023/08/10 14:49:10;;;;;;;20.10;3.92;;;;;;;;;;4879557;29;20300;-84
2023/08/10 14:51:36;;;;;;;19.42;3.88;;;;;;;;;;4895755;29;20044;-84
2023/08/10 14:54:02;;;;;;;19.63;4.25;;;;;;;;;;4896545;29;20406;-84
2023/08/10 14:56:28;;;;;;;21.98;4.22;;;;;;;;;;4895870;29;20044;-84
2023/08/10 14:58:53;;;;;;;19.48;3.97;;;;;;;;;;4896627;29;20478;-84
2023/08/10 15:01:19;;;;;;;20.60;4.43;;;;;;;;;;4895857;29;20108;-84
2023/08/10 15:03:44;;;;;;;23.77;4.38;;;;;;;;;;4896297;29;20052;-84
2023/08/10 15:06:10;;;;;;;22.15;4.60;;;;;;;;;;4895870;29;20057;-84
2023/08/10 15:08:35;;;;;;;21.83;4.38;;;;;;;;;;4896106;29;20047;-84
2023/08/10 15:11:05;;;;;;;17.95;4.03;;;;;;;;;;4896245;29;20041;-85
2023/08/10 15:13:32;;;;;;;15.60;3.50;;;;;;;;;;4895651;29;20051;-87
2023/08/10 15:15:57;;;;;;;24.02;4.38;;;;;;;;;;4896114;29;20528;-86
2023/08/10 15:18:22;;;;;;;24.90;4.68;;;;;;;;;;4895555;29;20045;-85
2023/08/10 15:20:48;;;;;;;18.92;4.53;;;;;;;;;;4895987;29;20049;-86
2023/08/10 15:23:13;;;;;;;24.65;4.90;;;;;;;;;;4895543;29;20220;-83
2023/08/10 15:25:39;;;;;;;28.38;5.68;;;;;;;;;;4896102;29;20103;-87
2023/08/10 15:28:04;;;;;;;18.70;4.18;;;;;;;;;;4895506;29;20513;-84
2023/08/10 15:30:30;;;;;;;18.35;4.05;;;;;;;;;;4896223;29;20044;-85
2023/08/10 15:32:55;;;;;;;18.67;4.03;;;;;;;;;;4888233;29;20045;-86
2023/08/10 15:35:21;;;;;;;24.30;4.40;;;;;;;;;;4876757;29;20506;-84
2023/08/10 15:37:46;;;;;;;20.90;4.25;;;;;;;;;;4878628;29;20041;-89
2023/08/10 15:40:12;;;;;;;21.98;5.10;;;;;;;;;;4895276;29;20040;-84
2023/08/10 15:42:38;;;;;;;20.60;4.65;;;;;;;;;;4886395;29;20832;-84
2023/08/10 15:45:05;;;;;;;22.02;4.97;;;;;;;;;;4870383;29;20060;-85
2023/08/10 15:47:31;;;;;;;29.70;5.93;;;;;;;;;;4871219;29;20045;-86
2023/08/10 15:49:56;;;;;;;21.25;4.28;;;;;;;;;;4886526;29;20126;-87
2023/08/10 15:52:22;;;;;;;32.58;5.20;;;;;;;;;;4885203;29;20045;-84
2023/08/10 15:54:47;;;;;;;25.05;4.88;;;;;;;;;;4889095;29;20072;-85
2023/08/10 15:57:12;;;;;;;27.70;5.85;;;;;;;;;;4887977;29;20041;-85
2023/08/10 15:59:38;;;;;;;26.67;6.05;;;;;;;;;;4887822;29;20059;-85
2023/08/10 16:02:03;;;;;;;28.00;5.53;;;;;;;;;;4888712;29;20109;-86
2023/08/10 16:04:29;;;;;;;34.55;6.53;;;;;;;;;;4892040;29;20132;-85
2023/08/10 16:06:55;;;;;;;34.58;5.93;;;;;;;;;;4892540;29;20053;-85
2023/08/10 16:09:22;;;;;;;34.78;6.10;;;;;;;;;;4891463;29;20052;-85
2023/08/10 16:11:47;;;;;;;35.60;5.22;;;;;;;;;;4892064;29;20056;-85
2023/08/10 16:14:12;;;;;;;24.10;5.13;;;;;;;;;;4891555;29;20092;-85
2023/08/10 16:16:38;;;;;;;26.55;5.03;;;;;;;;;;4891795;29;20070;-85
2023/08/10 16:19:03;;;;;;;28.58;5.30;;;;;;;;;;4891337;29;20052;-84
2023/08/10 16:21:29;;;;;;;25.17;5.30;;;;;;;;;;4891617;29;20488;-84
2023/08/10 16:23:54;;;;;;;19.98;4.82;;;;;;;;;;4891744;29;20056;-84
2023/08/10 16:26:19;;;;;;;21.00;4.88;;;;;;;;;;4891366;29;20063;-84
2023/08/10 16:28:45;;;;;;;27.60;5.03;;;;;;;;;;4892583;29;20063;-84
2023/08/10 16:31:10;;;;;;;30.75;5.22;;;;;;;;;;4891261;29;20048;-84
2023/08/10 16:33:36;;;;;;;27.77;5.03;;;;;;;;;;4891583;29;20135;-83
2023/08/10 16:36:03;;;;;;;29.98;5.10;;;;;;;;;;4891895;29;20048;-84
2023/08/10 16:38:28;;;;;;;16.80;3.95;;;;;;;;;;4891445;29;20059;-85
2023/08/10 16:40:54;;;;;;;19.15;3.97;;;;;;;;;;4891913;29;20045;-84
2023/08/10 16:43:19;;;;;;;25.15;4.13;;;;;;;;;;4891062;29;20048;-84
2023/08/10 16:45:44;;;;;;;24.25;4.85;;;;;;;;;;4891216;29;20490;-85
2023/08/10 16:48:10;;;;;;;17.17;4.50;;;;;;;;;;4891822;29;20064;-84
2023/08/10 16:50:35;;;;;;;23.33;4.13;;;;;;;;;;4891263;29;20813;-85
2023/08/10 16:53:02;;;;;;;14.88;3.33;;;;;;;;;;4891068;29;20044;-83
2023/08/10 16:55:27;;;;;;;21.35;4.28;;;;;;;;;;4890421;29;20144;-85
2023/08/10 16:57:53;;;;;;;17.08;3.70;;;;;;;;;;4890894;29;20513;-84
2023/08/10 17:00:18;;;;;;;22.20;4.13;;;;;;;;;;4888872;29;20108;-83
2023/08/10 17:02:44;;;;;;;21.23;4.10;;;;;;;;;;4887861;29;20074;-84
2023/08/10 17:05:12;;;;;;;21.50;4.13;;;;;;;;;;4888127;29;20826;-84
2023/08/10 17:07:37;;;;;;;22.25;4.68;;;;;;;;;;4886171;29;20394;-84
2023/08/10 17:10:05;;;;;;;20.10;4.10;;;;;;;;;;4891583;29;20049;-85
2023/08/10 17:12:31;;;;;;;16.17;3.47;;;;;;;;;;4890457;29;20049;-85
2023/08/10 17:14:56;;;;;;;19.75;3.83;;;;;;;;;;4888132;29;20050;-83
2023/08/10 17:17:21;;;;;;;16.65;3.80;;;;;;;;;;4888448;29;20048;-83
2023/08/10 17:19:47;;;;;;;21.80;3.88;;;;;;;;;;4886101;29;20063;-85
2023/08/10 17:22:13;;;;;;;23.25;4.30;;;;;;;;;;4889790;29;20041;-84
2023/08/10 17:24:38;;;;;;;23.85;4.97;;;;;;;;;;4888376;29;20056;-84
2023/08/10 17:27:04;;;;;;;20.58;4.55;;;;;;;;;;4890618;29;20051;-83
2023/08/10 17:29:32;;;;;;;20.00;4.20;;;;;;;;;;4889460;29;20052;-85
2023/08/10 17:32:01;;;;;;;24.95;4.05;;;;;;;;;;4882398;29;20136;-84
2023/08/10 17:34:27;;;;;;;20.83;4.32;;;;;;;;;;4885253;29;20163;-85
2023/08/10 17:36:52;;;;;;;18.75;4.78;;;;;;;;;;4889927;29;20192;-84
2023/08/10 17:39:18;;;;;;;30.45;5.38;;;;;;;;;;4889807;29;20145;-85
2023/08/10 17:41:46;;;;;;;28.20;5.90;;;;;;;;;;4888487;29;20056;-85
2023/08/10 17:44:11;;;;;;;36.75;6.50;;;;;;;;;;4886054;29;20399;-85
2023/08/10 17:46:37;;;;;;;28.48;4.85;;;;;;;;;;4890986;29;20063;-85
2023/08/10 17:49:03;;;;;;;30.55;5.57;;;;;;;;;;4889520;29;20482;-85
2023/08/10 17:51:28;;;;;;;36.45;6.13;;;;;;;;;;4888837;29;20051;-85
2023/08/10 17:53:54;;;;;;;29.13;5.75;;;;;;;;;;4890594;29;20045;-85
2023/08/10 17:56:19;;;;;;;36.42;6.50;;;;;;;;;;4890125;29;20052;-85
2023/08/10 17:58:46;;;;;;;30.95;5.88;;;;;;;;;;4890312;29;20120;-86
2023/08/10 18:01:14;;;;;;;30.27;5.43;;;;;;;;;;4887108;29;20522;-85
2023/08/10 18:03:40;;;;;;;30.77;6.32;;;;;;;;;;4890937;29;20123;-85
2023/08/10 18:06:06;;;;;;;39.35;6.63;;;;;;;;;;4890118;29;20060;-85
2023/08/10 18:08:31;;;;;;;29.65;6.38;;;;;;;;;;4888774;29;20052;-85
2023/08/10 18:10:57;;;;;;;30.85;5.97;;;;;;;;;;4890890;29;20091;-86
2023/08/10 18:13:23;;;;;;;38.97;6.38;;;;;;;;;;4889886;29;20143;-85
2023/08/10 18:15:49;;;;;;;25.45;5.82;;;;;;;;;;4887209;29;20135;-86
2023/08/10 18:18:14;;;;;;;30.58;6.47;;;;;;;;;;4887746;29;20131;-84
2023/08/10 18:20:40;;;;;;;30.85;6.68;;;;;;;;;;4882531;29;20052;-85
2023/08/10 18:23:05;;;;;;;31.02;6.28;;;;;;;;;;4889529;29;20051;-85
2023/08/10 18:25:30;;;;;;;22.35;5.32;;;;;;;;;;4888153;29;20110;-86
2023/08/10 18:27:56;;;;;;;28.35;6.90;;;;;;;;;;4889651;29;20043;-86
2023/08/10 18:30:21;;;;;;;36.90;7.20;;;;;;;;;;4885619;29;20104;-87
2023/08/10 18:32:47;;;;;;;36.92;7.82;;;;;;;;;;4889847;29;20048;-86
2023/08/10 18:35:14;;;;;;;34.40;7.85;;;;;;;;;;4884671;29;20103;-84
2023/08/10 18:37:39;;;;;;;44.50;9.50;;;;;;;;;;4890237;29;20037;-84
2023/08/10 18:40:05;;;;;;;50.13;9.55;;;;;;;;;;4886516;29;20047;-83
2023/08/10 18:42:31;;;;;;;50.53;9.88;;;;;;;;;;4885787;29;20056;-86
2023/08/10 18:44:56;;;;;;;46.40;9.82;;;;;;;;;;4883491;29;20116;-88
2023/08/10 18:47:22;;;;;;;63.88;11.38;;;;;;;;;;4889187;29;20045;-84
2023/08/10 18:49:51;;;;;;;66.65;11.27;;;;;;;;;;4881321;29;20086;-87
2023/08/10 18:52:16;;;;;;;79.32;11.88;;;;;;;;;;4888395;29;20045;-84
2023/08/10 18:54:41;;;;;;;71.55;11.85;;;;;;;;;;4877236;29;20056;-83
2023/08/10 18:57:07;;;;;;;79.75;12.38;;;;;;;;;;4887662;29;20510;-84
2023/08/10 18:59:32;;;;;;;75.15;13.02;;;;;;;;;;4888552;29;20053;-83
2023/08/10 19:01:58;;;;;;;75.45;12.40;;;;;;;;;;4888351;29;20053;-84
2023/08/10 19:04:23;;;;;;;97.38;12.68;;;;;;;;;;4881949;29;20472;-85
2023/08/10 19:06:49;;;;;;;86.57;13.40;;;;;;;;;;4874916;29;20072;-85
2023/08/10 19:09:14;;;;;;;104.53;15.85;;;;;;;;;;4889003;29;20537;-86
2023/08/10 19:11:40;;;;;;;87.95;14.20;;;;;;;;;;4888621;29;20041;-85
2023/08/10 19:14:05;;;;;;;91.97;13.80;;;;;;;;;;4888679;29;20050;-86
2023/08/10 19:16:31;;;;;;;101.22;14.25;;;;;;;;;;4888733;29;20048;-85
2023/08/10 19:18:56;;;;;;;111.00;15.63;;;;;;;;;;4889347;29;20131;-85
2023/08/10 19:21:22;;;;;;;103.75;16.00;;;;;;;;;;4887540;29;20040;-84
2023/08/10 19:23:47;;;;;;;95.88;14.93;;;;;;;;;;4870499;29;20100;-85
2023/08/10 19:26:13;;;;;;;101.82;14.45;;;;;;;;;;4885659;29;20506;-85
2023/08/10 19:28:38;;;;;;;108.28;15.77;;;;;;;;;;4887304;29;20199;-86
2023/08/10 19:31:06;;;;;;;90.78;14.38;;;;;;;;;;4887032;29;20041;-84
2023/08/10 19:33:33;;;;;;;97.95;16.00;;;;;;;;;;4886390;29;20040;-84
2023/08/10 19:36:03;;;;;;;99.85;16.13;;;;;;;;;;4884050;29;20069;-85
2023/08/10 19:38:29;;;;;;;97.55;15.38;;;;;;;;;;4888336;29;20044;-83
2023/08/10 19:40:54;;;;;;;74.68;13.98;;;;;;;;;;4878978;29;20047;-84
2023/08/10 19:43:20;;;;;;;76.10;13.68;;;;;;;;;;4883186;29;20699;-85
2023/08/10 19:45:46;;;;;;;132.10;14.85;;;;;;;;;;4875358;29;20151;-86
2023/08/10 19:48:11;;;;;;;75.00;13.82;;;;;;;;;;4876400;29;20073;-85
2023/08/10 19:50:37;;;;;;;103.88;14.80;;;;;;;;;;4878365;29;20100;-83
2023/08/10 19:53:04;;;;;;;84.30;12.32;;;;;;;;;;4883812;29;20108;-85
2023/08/10 19:55:30;;;;;;;90.72;13.45;;;;;;;;;;4889021;29;20048;-84
2023/08/10 19:57:58;;;;;;;99.22;13.27;;;;;;;;;;4888340;29;20838;-86
2023/08/10 20:00:24;;;;;;;111.82;13.82;;;;;;;;;;4870578;29;20049;-85
2023/08/10 20:02:50;;;;;;;130.13;13.98;;;;;;;;;;4887786;29;20048;-85
2023/08/10 20:05:16;;;;;;;81.60;14.57;;;;;;;;;;4885928;29;20072;-85
2023/08/10 20:07:42;;;;;;;131.77;14.93;;;;;;;;;;4888018;29;20071;-84
2023/08/10 20:10:08;;;;;;;119.03;13.00;;;;;;;;;;4887708;29;20429;-85
2023/08/10 20:12:33;;;;;;;101.38;12.63;;;;;;;;;;4888739;29;20063;-86
2023/08/10 20:14:59;;;;;;;151.07;13.70;;;;;;;;;;4887978;29;20048;-86
2023/08/10 20:17:24;;;;;;;124.32;14.07;;;;;;;;;;4887983;29;20052;-86
2023/08/10 20:19:51;;;;;;;186.80;13.85;;;;;;;;;;4886585;29;20112;-85